sensor_id;sensor_type;location;lat;lon;timestamp;temperature;humidity
1005;DHT22;491;53.480;10.174;2022-09-09T00:01:04;13.50;99.90
1005;DHT22;491;53.480;10.174;2022-09-09T00:03:47;13.50;99.90
1005;DHT22;491;53.480;10.174;2022-09-09T00:06:42;13.50;99.90
1005;DHT22;491;53.480;10.174;2022-09-09T00:09:17;13.50;99.90
1005;DHT22;491;53.480;10.174;2022-09-09T00:20:02;13.60;99.90
1005;DHT22;491;53.480;10.174;2022-09-09T00:22:30;13.50;99.90
1005;DHT22;491;53.480;10.174;2022-09-09T00:25:16;13.50;99.90
1005;DHT22;491;53.480;10.174;2022-09-09T00:27:48;13.50;99.90
1005;DHT22;491;53.480;10.174;2022-09-09T00:32:46;13.60;99.90
1005;DHT22;491;53.480;10.174;2022-09-09T00:35:37;13.50;99.90
1005;DHT22;491;53.480;10.174;2022-09-09T00:38:16;13.60;99.90
1005;DHT22;491;53.480;10.174;2022-09-09T00:40:52;13.60;99.90
1005;DHT22;491;53.480;10.174;2022-09-09T00:48:19;13.60;99.90
1005;DHT22;491;53.480;10.174;2022-09-09T00:50:56;13.60;99.90
1005;DHT22;491;53.480;10.174;2022-09-09T00:53:39;13.60;99.90
1005;DHT22;491;53.480;10.174;2022-09-09T00:56:18;13.60;99.90
1005;DHT22;491;53.480;10.174;2022-09-09T01:01:36;13.60;99.90
1005;DHT22;491;53.480;10.174;2022-09-09T01:04:09;13.70;99.90
1005;DHT22;491;53.480;10.174;2022-09-09T01:06:37;13.60;99.90
1005;DHT22;491;53.480;10.174;2022-09-09T01:09:25;13.70;99.90
1005;DHT22;491;53.480;10.174;2022-09-09T01:12:15;13.70;99.90
1005;DHT22;491;53.480;10.174;2022-09-09T01:14:52;13.70;99.90
1005;DHT22;491;53.480;10.174;2022-09-09T01:17:27;13.70;99.90
1005;DHT22;491;53.480;10.174;2022-09-09T01:20:14;13.70;99.90
1005;DHT22;491;53.480;10.174;2022-09-09T01:23:04;13.70;99.90
1005;DHT22;491;53.480;10.174;2022-09-09T01:28:19;13.60;99.90
1005;DHT22;491;53.480;10.174;2022-09-09T01:30:46;13.60;99.90
1005;DHT22;491;53.480;10.174;2022-09-09T01:33:16;13.60;99.90
1005;DHT22;491;53.480;10.174;2022-09-09T01:38:49;13.60;99.90
1005;DHT22;491;53.480;10.174;2022-09-09T01:41:15;13.60;99.90
1005;DHT22;491;53.480;10.174;2022-09-09T01:43:40;13.60;99.90
1005;DHT22;491;53.480;10.174;2022-09-09T01:46:06;13.60;99.90
1005;DHT22;491;53.480;10.174;2022-09-09T01:48:33;13.60;99.90
1005;DHT22;491;53.480;10.174;2022-09-09T01:50:59;13.60;99.90
1005;DHT22;491;53.480;10.174;2022-09-09T01:53:24;13.60;99.90
1005;DHT22;491;53.480;10.174;2022-09-09T01:56:14;13.60;99.90
1005;DHT22;491;53.480;10.174;2022-09-09T01:59:07;13.60;99.90
1005;DHT22;491;53.480;10.174;2022-09-09T02:06:58;13.60;99.90
1005;DHT22;491;53.480;10.174;2022-09-09T02:09:26;13.60;99.90
1005;DHT22;491;53.480;10.174;2022-09-09T02:11:58;13.60;99.90
1005;DHT22;491;53.480;10.174;2022-09-09T02:14:30;13.60;99.90
1005;DHT22;491;53.480;10.174;2022-09-09T02:17:03;13.60;99.90
1005;DHT22;491;53.480;10.174;2022-09-09T02:19:37;13.60;99.90
1005;DHT22;491;53.480;10.174;2022-09-09T02:22:04;13.50;99.90
1005;DHT22;491;53.480;10.174;2022-09-09T02:24:33;13.50;99.90
1005;DHT22;491;53.480;10.174;2022-09-09T02:27:02;13.40;99.90
1005;DHT22;491;53.480;10.174;2022-09-09T02:29:35;13.40;99.90
1005;DHT22;491;53.480;10.174;2022-09-09T02:32:05;13.40;99.90
1005;DHT22;491;53.480;10.174;2022-09-09T02:34:36;13.40;99.90
1005;DHT22;491;53.480;10.174;2022-09-09T02:37:06;13.40;99.90
1005;DHT22;491;53.480;10.174;2022-09-09T02:39:33;13.30;99.90
1005;DHT22;491;53.480;10.174;2022-09-09T02:41:59;13.30;99.90
1005;DHT22;491;53.480;10.174;2022-09-09T02:44:25;13.30;99.90
1005;DHT22;491;53.480;10.174;2022-09-09T02:52:21;13.20;99.90
1005;DHT22;491;53.480;10.174;2022-09-09T02:54:58;13.10;99.90
1005;DHT22;491;53.480;10.174;2022-09-09T02:57:27;13.10;99.90
1005;DHT22;491;53.480;10.174;2022-09-09T02:59:57;13.10;99.90
1005;DHT22;491;53.480;10.174;2022-09-09T03:02:23;13.10;99.90
1005;DHT22;491;53.480;10.174;2022-09-09T03:04:50;13.10;99.90
1005;DHT22;491;53.480;10.174;2022-09-09T03:07:18;13.10;99.90
1005;DHT22;491;53.480;10.174;2022-09-09T03:09:43;13.10;99.90
1005;DHT22;491;53.480;10.174;2022-09-09T03:12:10;13.10;99.90
1005;DHT22;491;53.480;10.174;2022-09-09T03:14:36;13.10;99.90
1005;DHT22;491;53.480;10.174;2022-09-09T03:17:03;13.10;99.90
1005;DHT22;491;53.480;10.174;2022-09-09T03:19:29;13.10;99.90
1005;DHT22;491;53.480;10.174;2022-09-09T03:21:55;13.10;99.90
1005;DHT22;491;53.480;10.174;2022-09-09T03:24:21;13.00;99.90
1005;DHT22;491;53.480;10.174;2022-09-09T03:26:48;13.00;99.90
1005;DHT22;491;53.480;10.174;2022-09-09T03:29:13;13.00;99.90
1005;DHT22;491;53.480;10.174;2022-09-09T03:31:40;13.10;99.90
1005;DHT22;491;53.480;10.174;2022-09-09T03:34:06;13.10;99.90
1005;DHT22;491;53.480;10.174;2022-09-09T03:36:32;13.00;99.90
1005;DHT22;491;53.480;10.174;2022-09-09T03:38:57;13.00;99.90
1005;DHT22;491;53.480;10.174;2022-09-09T03:41:26;12.90;99.90
1005;DHT22;491;53.480;10.174;2022-09-09T03:43:53;12.90;99.90
1005;DHT22;491;53.480;10.174;2022-09-09T03:46:20;12.90;99.90
1005;DHT22;491;53.480;10.174;2022-09-09T03:48:46;12.80;99.90
1005;DHT22;491;53.480;10.174;2022-09-09T03:51:11;12.80;99.90
1005;DHT22;491;53.480;10.174;2022-09-09T03:53:46;12.80;99.90
1005;DHT22;491;53.480;10.174;2022-09-09T03:56:11;12.80;99.90
1005;DHT22;491;53.480;10.174;2022-09-09T03:58:43;12.70;99.90
1005;DHT22;491;53.480;10.174;2022-09-09T04:01:11;12.70;99.90
1005;DHT22;491;53.480;10.174;2022-09-09T04:03:39;12.70;99.90
1005;DHT22;491;53.480;10.174;2022-09-09T04:06:08;12.70;99.90
1005;DHT22;491;53.480;10.174;2022-09-09T04:08:34;12.60;99.90
1005;DHT22;491;53.480;10.174;2022-09-09T04:11:02;12.70;99.90
1005;DHT22;491;53.480;10.174;2022-09-09T04:13:35;12.60;99.90
1005;DHT22;491;53.480;10.174;2022-09-09T04:16:03;12.60;99.90
1005;DHT22;491;53.480;10.174;2022-09-09T04:18:29;12.60;99.90
1005;DHT22;491;53.480;10.174;2022-09-09T04:20:55;12.60;99.90
1005;DHT22;491;53.480;10.174;2022-09-09T04:23:23;12.60;99.90
1005;DHT22;491;53.480;10.174;2022-09-09T04:25:53;12.60;99.90
1005;DHT22;491;53.480;10.174;2022-09-09T04:30:48;12.60;99.90
1005;DHT22;491;53.480;10.174;2022-09-09T04:33:14;12.70;99.90
1005;DHT22;491;53.480;10.174;2022-09-09T04:35:48;12.70;99.90
1005;DHT22;491;53.480;10.174;2022-09-09T04:38:16;12.70;99.90
1005;DHT22;491;53.480;10.174;2022-09-09T04:40:43;12.70;99.90
1005;DHT22;491;53.480;10.174;2022-09-09T04:43:09;12.80;99.90
1005;DHT22;491;53.480;10.174;2022-09-09T04:45:35;12.70;99.90
1005;DHT22;491;53.480;10.174;2022-09-09T04:48:01;12.80;99.90
1005;DHT22;491;53.480;10.174;2022-09-09T04:50:27;12.80;99.90
1005;DHT22;491;53.480;10.174;2022-09-09T04:52:53;12.80;99.90
1005;DHT22;491;53.480;10.174;2022-09-09T04:55:19;12.80;99.90
1005;DHT22;491;53.480;10.174;2022-09-09T04:57:45;12.80;99.90
1005;DHT22;491;53.480;10.174;2022-09-09T05:00:11;12.80;99.90
1005;DHT22;491;53.480;10.174;2022-09-09T05:02:37;12.80;99.90
1005;DHT22;491;53.480;10.174;2022-09-09T05:05:04;12.80;99.90
1005;DHT22;491;53.480;10.174;2022-09-09T05:07:32;12.80;99.90
1005;DHT22;491;53.480;10.174;2022-09-09T05:10:04;12.80;99.90
1005;DHT22;491;53.480;10.174;2022-09-09T05:12:31;12.80;99.90
1005;DHT22;491;53.480;10.174;2022-09-09T05:14:57;12.80;99.90
1005;DHT22;491;53.480;10.174;2022-09-09T05:17:23;12.80;99.90
1005;DHT22;491;53.480;10.174;2022-09-09T05:19:48;12.80;99.90
1005;DHT22;491;53.480;10.174;2022-09-09T05:22:21;12.90;99.90
1005;DHT22;491;53.480;10.174;2022-09-09T05:24:49;12.90;99.90
1005;DHT22;491;53.480;10.174;2022-09-09T05:27:18;12.90;99.90
1005;DHT22;491;53.480;10.174;2022-09-09T05:29:45;12.90;99.90
1005;DHT22;491;53.480;10.174;2022-09-09T05:32:10;13.00;99.90
1005;DHT22;491;53.480;10.174;2022-09-09T05:34:36;13.10;99.90
1005;DHT22;491;53.480;10.174;2022-09-09T05:37:03;13.10;99.90
1005;DHT22;491;53.480;10.174;2022-09-09T05:39:32;13.10;99.90
1005;DHT22;491;53.480;10.174;2022-09-09T05:41:58;13.10;99.90
1005;DHT22;491;53.480;10.174;2022-09-09T05:44:23;13.20;99.90
1005;DHT22;491;53.480;10.174;2022-09-09T05:46:52;13.20;99.90
1005;DHT22;491;53.480;10.174;2022-09-09T05:49:19;13.20;99.90
1005;DHT22;491;53.480;10.174;2022-09-09T05:51:45;13.30;99.90
1005;DHT22;491;53.480;10.174;2022-09-09T05:54:10;13.40;99.90
1005;DHT22;491;53.480;10.174;2022-09-09T05:56:36;13.40;99.90
1005;DHT22;491;53.480;10.174;2022-09-09T05:59:01;13.50;99.90
1005;DHT22;491;53.480;10.174;2022-09-09T06:01:30;13.50;99.90
1005;DHT22;491;53.480;10.174;2022-09-09T06:03:57;13.50;99.90
1005;DHT22;491;53.480;10.174;2022-09-09T06:06:27;13.60;99.90
1005;DHT22;491;53.480;10.174;2022-09-09T06:08:56;13.60;99.90
1005;DHT22;491;53.480;10.174;2022-09-09T06:11:29;13.70;99.90
1005;DHT22;491;53.480;10.174;2022-09-09T06:13:56;13.70;99.90
1005;DHT22;491;53.480;10.174;2022-09-09T06:16:23;13.60;99.90
1005;DHT22;491;53.480;10.174;2022-09-09T06:18:49;13.70;99.90
1005;DHT22;491;53.480;10.174;2022-09-09T06:21:17;13.80;99.90
1005;DHT22;491;53.480;10.174;2022-09-09T06:23:44;13.80;99.90
1005;DHT22;491;53.480;10.174;2022-09-09T06:26:18;13.80;99.90
1005;DHT22;491;53.480;10.174;2022-09-09T06:28:45;13.90;99.90
1005;DHT22;491;53.480;10.174;2022-09-09T06:31:12;13.90;99.90
1005;DHT22;491;53.480;10.174;2022-09-09T06:33:39;14.00;99.90
1005;DHT22;491;53.480;10.174;2022-09-09T06:36:07;14.00;99.90
1005;DHT22;491;53.480;10.174;2022-09-09T06:38:35;14.10;99.90
1005;DHT22;491;53.480;10.174;2022-09-09T06:41:00;14.20;99.90
1005;DHT22;491;53.480;10.174;2022-09-09T06:43:27;14.30;99.90
1005;DHT22;491;53.480;10.174;2022-09-09T06:45:54;14.40;99.90
1005;DHT22;491;53.480;10.174;2022-09-09T06:48:20;14.50;99.90
1005;DHT22;491;53.480;10.174;2022-09-09T06:50:46;14.50;99.90
1005;DHT22;491;53.480;10.174;2022-09-09T06:53:11;14.60;99.90
1005;DHT22;491;53.480;10.174;2022-09-09T06:55:37;14.70;99.90
1005;DHT22;491;53.480;10.174;2022-09-09T06:58:08;15.00;99.90
1005;DHT22;491;53.480;10.174;2022-09-09T07:00:34;15.60;99.90
1005;DHT22;491;53.480;10.174;2022-09-09T07:03:05;16.10;99.90
1005;DHT22;491;53.480;10.174;2022-09-09T07:05:31;16.50;99.90
1005;DHT22;491;53.480;10.174;2022-09-09T07:07:57;16.80;99.90
1005;DHT22;491;53.480;10.174;2022-09-09T07:10:22;17.00;99.90
1005;DHT22;491;53.480;10.174;2022-09-09T07:12:54;18.30;99.90
1005;DHT22;491;53.480;10.174;2022-09-09T07:15:20;18.00;99.90
1005;DHT22;491;53.480;10.174;2022-09-09T07:17:49;16.90;99.90
1005;DHT22;491;53.480;10.174;2022-09-09T07:20:15;16.50;99.90
1005;DHT22;491;53.480;10.174;2022-09-09T07:22:41;16.50;99.90
1005;DHT22;491;53.480;10.174;2022-09-09T07:25:07;16.60;99.90
1005;DHT22;491;53.480;10.174;2022-09-09T07:27:33;16.90;99.90
1005;DHT22;491;53.480;10.174;2022-09-09T07:29:58;17.80;99.90
1005;DHT22;491;53.480;10.174;2022-09-09T07:32:24;19.80;99.90
1005;DHT22;491;53.480;10.174;2022-09-09T07:34:51;22.50;99.90
1005;DHT22;491;53.480;10.174;2022-09-09T07:37:17;23.20;1.00
1005;DHT22;491;53.480;10.174;2022-09-09T07:39:43;24.80;99.90
1005;DHT22;491;53.480;10.174;2022-09-09T07:42:09;24.60;99.90
1005;DHT22;491;53.480;10.174;2022-09-09T07:44:36;25.20;99.90
1005;DHT22;491;53.480;10.174;2022-09-09T07:47:04;26.20;99.90
1005;DHT22;491;53.480;10.174;2022-09-09T07:49:30;25.10;99.90
1005;DHT22;491;53.480;10.174;2022-09-09T07:51:55;26.20;99.90
1005;DHT22;491;53.480;10.174;2022-09-09T07:54:21;23.80;99.90
1005;DHT22;491;53.480;10.174;2022-09-09T07:56:49;21.70;1.00
1005;DHT22;491;53.480;10.174;2022-09-09T07:59:15;19.90;1.00
1005;DHT22;491;53.480;10.174;2022-09-09T08:01:47;18.90;99.90
1005;DHT22;491;53.480;10.174;2022-09-09T08:04:16;18.30;99.90
1005;DHT22;491;53.480;10.174;2022-09-09T08:06:49;18.00;99.90
1005;DHT22;491;53.480;10.174;2022-09-09T08:09:15;17.80;99.90
1005;DHT22;491;53.480;10.174;2022-09-09T08:11:42;17.80;99.90
1005;DHT22;491;53.480;10.174;2022-09-09T08:14:10;17.80;99.90
1005;DHT22;491;53.480;10.174;2022-09-09T08:16:41;18.00;99.90
1005;DHT22;491;53.480;10.174;2022-09-09T08:19:08;18.20;99.90
1005;DHT22;491;53.480;10.174;2022-09-09T08:21:35;18.70;99.90
1005;DHT22;491;53.480;10.174;2022-09-09T08:24:02;18.80;99.90
1005;DHT22;491;53.480;10.174;2022-09-09T08:26:33;19.30;99.90
1005;DHT22;491;53.480;10.174;2022-09-09T08:29:00;19.30;99.90
1005;DHT22;491;53.480;10.174;2022-09-09T08:31:28;18.90;99.90
1005;DHT22;491;53.480;10.174;2022-09-09T08:33:55;18.70;99.90
1005;DHT22;491;53.480;10.174;2022-09-09T08:36:23;18.20;99.90
1005;DHT22;491;53.480;10.174;2022-09-09T08:38:50;18.10;99.90
1005;DHT22;491;53.480;10.174;2022-09-09T08:41:27;18.10;99.90
1005;DHT22;491;53.480;10.174;2022-09-09T08:50:19;18.80;99.90
1005;DHT22;491;53.480;10.174;2022-09-09T08:55:42;19.40;30.00
1005;DHT22;491;53.480;10.174;2022-09-09T08:58:14;19.30;90.00
1005;DHT22;491;53.480;10.174;2022-09-09T09:00:53;19.70;99.90
1005;DHT22;491;53.480;10.174;2022-09-09T09:03:47;20.70;1.00
1005;DHT22;491;53.480;10.174;2022-09-09T09:09:40;20.60;99.90
1005;DHT22;491;53.480;10.174;2022-09-09T09:12:20;20.60;99.90
1005;DHT22;491;53.480;10.174;2022-09-09T09:14:47;21.40;99.90
1005;DHT22;491;53.480;10.174;2022-09-09T09:17:19;21.80;99.90
1005;DHT22;491;53.480;10.174;2022-09-09T09:19:46;21.70;1.00
1005;DHT22;491;53.480;10.174;2022-09-09T09:22:26;21.10;99.90
1005;DHT22;491;53.480;10.174;2022-09-09T09:25:04;21.80;1.00
1005;DHT22;491;53.480;10.174;2022-09-09T09:27:36;22.10;1.00
1005;DHT22;491;53.480;10.174;2022-09-09T09:30:17;21.70;99.90
1005;DHT22;491;53.480;10.174;2022-09-09T09:32:56;21.30;99.90
1005;DHT22;491;53.480;10.174;2022-09-09T09:35:23;21.00;99.90
1005;DHT22;491;53.480;10.174;2022-09-09T09:37:49;21.50;1.00
1005;DHT22;491;53.480;10.174;2022-09-09T09:40:19;22.10;1.00
1005;DHT22;491;53.480;10.174;2022-09-09T09:42:58;25.90;99.90
1005;DHT22;491;53.480;10.174;2022-09-09T09:45:34;27.40;99.90
1005;DHT22;491;53.480;10.174;2022-09-09T09:48:06;26.20;99.90
1005;DHT22;491;53.480;10.174;2022-09-09T09:50:33;23.70;99.90
1005;DHT22;491;53.480;10.174;2022-09-09T09:53:03;22.50;1.00
1005;DHT22;491;53.480;10.174;2022-09-09T09:55:30;21.60;99.90
1005;DHT22;491;53.480;10.174;2022-09-09T09:58:04;21.20;99.90
1005;DHT22;491;53.480;10.174;2022-09-09T10:00:31;20.80;99.90
1005;DHT22;491;53.480;10.174;2022-09-09T10:02:59;21.10;99.90
1005;DHT22;491;53.480;10.174;2022-09-09T10:05:27;22.40;1.00
1005;DHT22;491;53.480;10.174;2022-09-09T10:08:11;23.80;1.00
1005;DHT22;491;53.480;10.174;2022-09-09T10:11:09;25.40;99.90
1005;DHT22;491;53.480;10.174;2022-09-09T10:16:47;26.00;99.90
1005;DHT22;491;53.480;10.174;2022-09-09T10:19:32;25.20;99.90
1005;DHT22;491;53.480;10.174;2022-09-09T10:25:11;23.50;99.90
1005;DHT22;491;53.480;10.174;2022-09-09T10:30:36;25.70;99.90
1005;DHT22;491;53.480;10.174;2022-09-09T10:36:13;24.10;99.90
1005;DHT22;491;53.480;10.174;2022-09-09T10:41:40;22.20;99.90
1005;DHT22;491;53.480;10.174;2022-09-09T10:50:17;24.60;99.90
1005;DHT22;491;53.480;10.174;2022-09-09T10:55:50;23.00;1.00
1005;DHT22;491;53.480;10.174;2022-09-09T10:58:28;22.00;99.90
1005;DHT22;491;53.480;10.174;2022-09-09T11:01:03;21.50;99.90
1005;DHT22;491;53.480;10.174;2022-09-09T11:03:33;21.10;99.90
1005;DHT22;491;53.480;10.174;2022-09-09T11:06:04;21.00;1.00
1005;DHT22;491;53.480;10.174;2022-09-09T11:08:32;21.20;1.00
1005;DHT22;491;53.480;10.174;2022-09-09T11:11:05;21.30;99.90
1005;DHT22;491;53.480;10.174;2022-09-09T11:16:29;21.30;1.00
1005;DHT22;491;53.480;10.174;2022-09-09T11:19:04;21.40;99.90
1005;DHT22;491;53.480;10.174;2022-09-09T11:21:41;21.60;99.90
1005;DHT22;491;53.480;10.174;2022-09-09T11:27:03;24.20;1.00
1005;DHT22;491;53.480;10.174;2022-09-09T11:35:33;22.10;99.90
1005;DHT22;491;53.480;10.174;2022-09-09T11:38:25;21.60;99.90
1005;DHT22;491;53.480;10.174;2022-09-09T11:41:06;21.30;1.00
1005;DHT22;491;53.480;10.174;2022-09-09T11:43:44;21.00;1.00
1005;DHT22;491;53.480;10.174;2022-09-09T11:46:12;20.70;17.60
1005;DHT22;491;53.480;10.174;2022-09-09T11:51:10;20.80;1.00
1005;DHT22;491;53.480;10.174;2022-09-09T11:53:55;20.70;1.00
1005;DHT22;491;53.480;10.174;2022-09-09T11:56:32;20.70;1.00
1005;DHT22;491;53.480;10.174;2022-09-09T11:59:01;20.60;1.00
1005;DHT22;491;53.480;10.174;2022-09-09T12:01:36;20.80;1.00
1005;DHT22;491;53.480;10.174;2022-09-09T12:04:16;20.70;37.90
1005;DHT22;491;53.480;10.174;2022-09-09T12:17:17;20.10;99.90
1005;DHT22;491;53.480;10.174;2022-09-09T12:19:44;20.00;99.90
1005;DHT22;491;53.480;10.174;2022-09-09T12:22:32;20.10;99.90
1005;DHT22;491;53.480;10.174;2022-09-09T12:27:36;20.30;99.90
1005;DHT22;491;53.480;10.174;2022-09-09T12:30:15;20.30;99.90
1005;DHT22;491;53.480;10.174;2022-09-09T12:32:41;20.30;98.80
1005;DHT22;491;53.480;10.174;2022-09-09T12:35:21;20.40;71.30
1005;DHT22;491;53.480;10.174;2022-09-09T12:37:57;20.20;40.00
1005;DHT22;491;53.480;10.174;2022-09-09T12:40:29;20.30;50.70
1005;DHT22;491;53.480;10.174;2022-09-09T12:42:55;20.40;99.90
1005;DHT22;491;53.480;10.174;2022-09-09T12:45:23;20.70;82.30
1005;DHT22;491;53.480;10.174;2022-09-09T12:47:59;20.90;1.00
1005;DHT22;491;53.480;10.174;2022-09-09T12:50:31;20.80;1.00
1005;DHT22;491;53.480;10.174;2022-09-09T12:53:08;21.00;1.00
1005;DHT22;491;53.480;10.174;2022-09-09T12:55:38;21.00;1.00
1005;DHT22;491;53.480;10.174;2022-09-09T12:58:05;21.20;1.00
1005;DHT22;491;53.480;10.174;2022-09-09T13:00:34;21.10;1.00
1005;DHT22;491;53.480;10.174;2022-09-09T13:03:03;21.10;1.00
1005;DHT22;491;53.480;10.174;2022-09-09T13:05:39;21.00;99.90
1005;DHT22;491;53.480;10.174;2022-09-09T13:08:06;20.90;99.90
1005;DHT22;491;53.480;10.174;2022-09-09T13:10:36;20.80;99.90
1005;DHT22;491;53.480;10.174;2022-09-09T13:13:14;20.50;1.00
1005;DHT22;491;53.480;10.174;2022-09-09T13:15:51;20.40;1.00
1005;DHT22;491;53.480;10.174;2022-09-09T13:18:23;20.10;1.00
1005;DHT22;491;53.480;10.174;2022-09-09T13:20:50;20.10;1.00
1005;DHT22;491;53.480;10.174;2022-09-09T13:23:18;20.10;8.20
1005;DHT22;491;53.480;10.174;2022-09-09T13:25:54;20.00;81.70
1005;DHT22;491;53.480;10.174;2022-09-09T13:28:23;20.00;99.90
1005;DHT22;491;53.480;10.174;2022-09-09T13:31:00;19.90;99.90
1005;DHT22;491;53.480;10.174;2022-09-09T13:33:36;19.80;99.90
1005;DHT22;491;53.480;10.174;2022-09-09T13:36:10;19.50;99.90
1005;DHT22;491;53.480;10.174;2022-09-09T13:41:22;19.00;99.90
1005;DHT22;491;53.480;10.174;2022-09-09T13:43:49;18.90;99.90
1005;DHT22;491;53.480;10.174;2022-09-09T13:46:28;18.70;99.90
1005;DHT22;491;53.480;10.174;2022-09-09T13:48:56;18.50;99.90
1005;DHT22;491;53.480;10.174;2022-09-09T13:51:33;18.40;99.90
1005;DHT22;491;53.480;10.174;2022-09-09T13:54:00;18.30;99.90
1005;DHT22;491;53.480;10.174;2022-09-09T13:56:26;18.20;99.90
1005;DHT22;491;53.480;10.174;2022-09-09T13:58:52;18.10;99.90
1005;DHT22;491;53.480;10.174;2022-09-09T14:01:17;18.10;99.90
1005;DHT22;491;53.480;10.174;2022-09-09T14:03:42;17.90;99.90
1005;DHT22;491;53.480;10.174;2022-09-09T14:06:09;17.80;99.90
1005;DHT22;491;53.480;10.174;2022-09-09T14:08:36;17.80;99.90
1005;DHT22;491;53.480;10.174;2022-09-09T14:11:03;17.60;99.90
1005;DHT22;491;53.480;10.174;2022-09-09T14:13:29;17.60;99.90
1005;DHT22;491;53.480;10.174;2022-09-09T14:15:54;17.50;99.90
1005;DHT22;491;53.480;10.174;2022-09-09T14:18:20;17.40;99.90
1005;DHT22;491;53.480;10.174;2022-09-09T14:20:47;17.30;99.90
1005;DHT22;491;53.480;10.174;2022-09-09T14:23:13;17.30;99.90
1005;DHT22;491;53.480;10.174;2022-09-09T14:25:40;17.30;99.90
1005;DHT22;491;53.480;10.174;2022-09-09T14:28:09;17.20;99.90
1005;DHT22;491;53.480;10.174;2022-09-09T14:30:34;17.30;99.90
1005;DHT22;491;53.480;10.174;2022-09-09T14:33:00;17.30;99.90
1005;DHT22;491;53.480;10.174;2022-09-09T14:35:25;17.20;99.90
1005;DHT22;491;53.480;10.174;2022-09-09T14:37:51;17.10;99.90
1005;DHT22;491;53.480;10.174;2022-09-09T14:40:17;17.10;99.90
1005;DHT22;491;53.480;10.174;2022-09-09T14:42:42;16.90;99.90
1005;DHT22;491;53.480;10.174;2022-09-09T14:45:08;16.90;99.90
1005;DHT22;491;53.480;10.174;2022-09-09T14:47:33;17.00;99.90
1005;DHT22;491;53.480;10.174;2022-09-09T14:49:59;17.00;99.90
1005;DHT22;491;53.480;10.174;2022-09-09T14:52:26;16.90;99.90
1005;DHT22;491;53.480;10.174;2022-09-09T14:54:51;16.90;99.90
1005;DHT22;491;53.480;10.174;2022-09-09T14:57:17;16.90;99.90
1005;DHT22;491;53.480;10.174;2022-09-09T14:59:42;16.90;99.90
1005;DHT22;491;53.480;10.174;2022-09-09T15:02:09;16.90;99.90
1005;DHT22;491;53.480;10.174;2022-09-09T15:04:34;16.90;99.90
1005;DHT22;491;53.480;10.174;2022-09-09T15:07:00;16.90;99.90
1005;DHT22;491;53.480;10.174;2022-09-09T15:09:26;16.90;99.90
1005;DHT22;491;53.480;10.174;2022-09-09T15:11:51;16.80;99.90
1005;DHT22;491;53.480;10.174;2022-09-09T15:14:17;16.70;99.90
1005;DHT22;491;53.480;10.174;2022-09-09T15:16:42;16.50;99.90
1005;DHT22;491;53.480;10.174;2022-09-09T15:19:08;16.50;99.90
1005;DHT22;491;53.480;10.174;2022-09-09T15:21:35;16.50;99.90
1005;DHT22;491;53.480;10.174;2022-09-09T15:24:01;16.50;99.90
1005;DHT22;491;53.480;10.174;2022-09-09T15:26:27;16.50;99.90
1005;DHT22;491;53.480;10.174;2022-09-09T15:28:53;16.50;99.90
1005;DHT22;491;53.480;10.174;2022-09-09T15:31:21;16.60;99.90
1005;DHT22;491;53.480;10.174;2022-09-09T15:33:52;16.60;99.90
1005;DHT22;491;53.480;10.174;2022-09-09T15:36:25;16.70;99.90
1005;DHT22;491;53.480;10.174;2022-09-09T15:38:51;16.70;99.90
1005;DHT22;491;53.480;10.174;2022-09-09T15:41:18;16.90;99.90
1005;DHT22;491;53.480;10.174;2022-09-09T15:43:45;16.90;99.90
1005;DHT22;491;53.480;10.174;2022-09-09T15:48:43;17.00;99.90
1005;DHT22;491;53.480;10.174;2022-09-09T15:51:10;17.10;99.90
1005;DHT22;491;53.480;10.174;2022-09-09T15:53:36;17.10;99.90
1005;DHT22;491;53.480;10.174;2022-09-09T15:56:07;17.00;99.90
1005;DHT22;491;53.480;10.174;2022-09-09T15:58:33;17.00;99.90
1005;DHT22;491;53.480;10.174;2022-09-09T16:01:06;17.00;99.90
1005;DHT22;491;53.480;10.174;2022-09-09T16:03:36;17.00;99.90
1005;DHT22;491;53.480;10.174;2022-09-09T16:06:03;17.20;99.90
1005;DHT22;491;53.480;10.174;2022-09-09T16:08:33;17.10;99.90
1005;DHT22;491;53.480;10.174;2022-09-09T16:11:16;17.10;99.90
1005;DHT22;491;53.480;10.174;2022-09-09T16:13:43;17.20;99.90
1005;DHT22;491;53.480;10.174;2022-09-09T16:16:13;17.20;99.90
1005;DHT22;491;53.480;10.174;2022-09-09T16:18:42;17.20;99.90
1005;DHT22;491;53.480;10.174;2022-09-09T16:21:13;17.20;99.90
1005;DHT22;491;53.480;10.174;2022-09-09T16:23:39;17.20;99.90
1005;DHT22;491;53.480;10.174;2022-09-09T16:26:05;17.30;99.90
1005;DHT22;491;53.480;10.174;2022-09-09T16:28:30;17.30;99.90
1005;DHT22;491;53.480;10.174;2022-09-09T16:30:56;17.30;99.90
1005;DHT22;491;53.480;10.174;2022-09-09T16:33:23;17.20;99.90
1005;DHT22;491;53.480;10.174;2022-09-09T16:35:48;17.20;99.90
1005;DHT22;491;53.480;10.174;2022-09-09T16:38:14;17.20;99.90
1005;DHT22;491;53.480;10.174;2022-09-09T16:40:40;17.20;99.90
1005;DHT22;491;53.480;10.174;2022-09-09T16:43:12;17.20;99.90
1005;DHT22;491;53.480;10.174;2022-09-09T16:45:47;17.10;99.90
1005;DHT22;491;53.480;10.174;2022-09-09T16:48:12;17.10;99.90
1005;DHT22;491;53.480;10.174;2022-09-09T16:50:38;17.20;99.90
1005;DHT22;491;53.480;10.174;2022-09-09T16:53:04;17.20;99.90
1005;DHT22;491;53.480;10.174;2022-09-09T16:55:40;17.20;99.90
1005;DHT22;491;53.480;10.174;2022-09-09T16:58:07;17.10;99.90
1005;DHT22;491;53.480;10.174;2022-09-09T17:00:35;17.00;99.90
1005;DHT22;491;53.480;10.174;2022-09-09T17:03:00;17.00;99.90
1005;DHT22;491;53.480;10.174;2022-09-09T17:05:26;17.00;99.90
1005;DHT22;491;53.480;10.174;2022-09-09T17:07:51;16.90;99.90
1005;DHT22;491;53.480;10.174;2022-09-09T17:10:18;16.90;99.90
1005;DHT22;491;53.480;10.174;2022-09-09T17:12:44;16.80;99.90
1005;DHT22;491;53.480;10.174;2022-09-09T17:15:11;16.80;99.90
1005;DHT22;491;53.480;10.174;2022-09-09T17:17:36;16.70;99.90
1005;DHT22;491;53.480;10.174;2022-09-09T17:20:02;16.70;99.90
1005;DHT22;491;53.480;10.174;2022-09-09T17:22:28;16.70;99.90
1005;DHT22;491;53.480;10.174;2022-09-09T17:24:54;16.60;99.90
1005;DHT22;491;53.480;10.174;2022-09-09T17:27:20;16.60;99.90
1005;DHT22;491;53.480;10.174;2022-09-09T17:29:45;16.50;99.90
1005;DHT22;491;53.480;10.174;2022-09-09T17:32:11;16.30;99.90
1005;DHT22;491;53.480;10.174;2022-09-09T17:34:37;16.20;99.90
1005;DHT22;491;53.480;10.174;2022-09-09T17:37:03;16.10;99.90
1005;DHT22;491;53.480;10.174;2022-09-09T17:39:31;16.00;99.90
1005;DHT22;491;53.480;10.174;2022-09-09T17:41:56;15.90;99.90
1005;DHT22;491;53.480;10.174;2022-09-09T17:44:22;15.80;99.90
1005;DHT22;491;53.480;10.174;2022-09-09T17:46:48;15.70;99.90
1005;DHT22;491;53.480;10.174;2022-09-09T17:49:16;15.70;99.90
1005;DHT22;491;53.480;10.174;2022-09-09T17:51:44;15.70;99.90
1005;DHT22;491;53.480;10.174;2022-09-09T17:54:15;15.60;99.90
1005;DHT22;491;53.480;10.174;2022-09-09T17:56:42;15.50;99.90
1005;DHT22;491;53.480;10.174;2022-09-09T17:59:10;15.50;99.90
1005;DHT22;491;53.480;10.174;2022-09-09T18:01:38;15.40;99.90
1005;DHT22;491;53.480;10.174;2022-09-09T18:04:06;15.40;99.90